createdAt,value
2023-02-06T00:01:00.653Z,83
2023-02-06T00:01:27.467Z,83
2023-02-06T00:02:34.748Z,83
2023-02-06T00:03:25.576Z,83
2023-02-06T00:04:32.984Z,83
2023-02-06T00:05:35.194Z,82
2023-02-06T00:06:26.534Z,82
2023-02-06T00:07:34.353Z,82
2023-02-06T00:08:49.781Z,83
2023-02-06T00:09:40.986Z,83
2023-02-06T00:10:25.837Z,83
2023-02-06T00:11:47.549Z,83
2023-02-06T00:12:25.861Z,83
2023-02-06T00:13:28.952Z,83
2023-02-06T00:14:21.725Z,83
2023-02-06T00:15:56.479Z,83
2023-02-06T00:16:42.060Z,83
2023-02-06T00:17:26.916Z,83
2023-02-06T00:18:28.117Z,83
2023-02-06T00:19:40.785Z,83
2023-02-06T00:20:32.878Z,83
2023-02-06T00:21:26.622Z,83
2023-02-06T00:22:57.445Z,82
2023-02-06T00:23:44.647Z,83
2023-02-06T00:24:33.639Z,83
2023-02-06T00:25:51.387Z,83
2023-02-06T00:26:44.364Z,82
2023-02-06T00:27:39.258Z,83
2023-02-06T00:28:28.621Z,83
2023-02-06T00:29:23.598Z,83
2023-02-06T00:30:38.134Z,83
2023-02-06T00:31:33.494Z,83
2023-02-06T00:32:19.645Z,82
2023-02-06T00:33:47.728Z,82
2023-02-06T00:34:41.708Z,82
2023-02-06T00:35:34.671Z,83
2023-02-06T00:36:22.877Z,82
2023-02-06T00:37:50.415Z,83
2023-02-06T00:38:37.498Z,82
2023-02-06T00:39:23.331Z,82
2023-02-06T00:40:20.955Z,82
2023-02-06T00:41:35.158Z,82
2023-02-06T00:42:32.139Z,82
2023-02-06T00:43:27.048Z,82
2023-02-06T00:44:20.078Z,82
2023-02-06T00:45:39.734Z,82
2023-02-06T00:47:03.939Z,82
2023-02-06T00:47:40.584Z,82
2023-02-06T00:48:49.436Z,82
2023-02-06T00:49:35.384Z,82
2023-02-06T00:50:22.402Z,82
2023-02-06T00:51:24.133Z,82
2023-02-06T00:52:20.393Z,82
2023-02-06T00:53:28.955Z,82
2023-02-06T00:54:57.964Z,82
2023-02-06T00:55:54.644Z,82
2023-02-06T00:56:37.795Z,82
2023-02-06T00:57:25.860Z,82
2023-02-06T00:58:28.224Z,82
2023-02-06T00:59:21.151Z,82
2023-02-06T01:00:31.982Z,82
2023-02-06T01:02:01.514Z,82
2023-02-06T01:02:54.300Z,82
2023-02-06T01:03:29.588Z,82
2023-02-06T01:04:28.376Z,82
2023-02-06T01:05:31.999Z,82
2023-02-06T01:06:25.355Z,82
2023-02-06T01:07:22.049Z,82
2023-02-06T01:08:22.023Z,82
2023-02-06T01:09:32.592Z,82
2023-02-06T01:10:44.704Z,82
2023-02-06T01:11:30.522Z,82
2023-02-06T01:12:35.999Z,82
2023-02-06T01:13:29.014Z,82
2023-02-06T01:14:27.352Z,82
2023-02-06T01:15:24.867Z,82
2023-02-06T01:16:52.050Z,82
2023-02-06T01:17:47.230Z,82
2023-02-06T01:18:34.979Z,82
2023-02-06T01:19:21.461Z,82
2023-02-06T01:20:30.100Z,82
2023-02-06T01:21:27.766Z,82
2023-02-06T01:22:24.105Z,82
2023-02-06T01:24:03.754Z,82
2023-02-06T01:24:49.607Z,82
2023-02-06T01:25:22.496Z,82
2023-02-06T01:26:24.322Z,82
2023-02-06T01:27:37.267Z,82
2023-02-06T01:28:36.209Z,82
2023-02-06T01:29:25.117Z,82
2023-02-06T01:30:22.855Z,82
2023-02-06T01:31:27.616Z,82
2023-02-06T01:32:42.382Z,82
2023-02-06T01:33:28.003Z,82
2023-02-06T01:34:40.915Z,82
2023-02-06T01:35:34.834Z,82
2023-02-06T01:36:27.446Z,81
2023-02-06T01:37:22.480Z,82
2023-02-06T01:38:46.311Z,82
2023-02-06T01:39:43.381Z,82
2023-02-06T01:40:30.487Z,82
2023-02-06T01:41:45.194Z,82
2023-02-06T01:42:25.051Z,81
2023-02-06T01:43:32.127Z,81
2023-02-06T01:44:24.897Z,82
2023-02-06T01:45:22.080Z,81
2023-02-06T01:46:46.718Z,81
2023-02-06T01:47:31.555Z,81
2023-02-06T01:48:30.569Z,81
2023-02-06T01:49:43.561Z,81
2023-02-06T01:50:36.312Z,81
2023-02-06T01:51:29.376Z,81
2023-02-06T01:52:21.038Z,81
2023-02-06T01:53:20.768Z,81
2023-02-06T01:54:36.051Z,81
2023-02-06T01:55:22.075Z,81
2023-02-06T01:56:47.936Z,81
2023-02-06T01:57:40.795Z,81
2023-02-06T01:58:32.141Z,81
2023-02-06T01:59:25.623Z,81
2023-02-06T02:00:26.182Z,81
2023-02-06T02:01:45.440Z,81
2023-02-06T02:02:59.492Z,81
2023-02-06T02:03:55.513Z,81
2023-02-06T02:11:39.617Z,81
2023-02-06T02:12:48.432Z,81
2023-02-06T02:13:25.833Z,81
2023-02-06T02:21:19.647Z,81
2023-02-06T02:22:23.083Z,81
2023-02-06T02:23:22.611Z,81
2023-02-06T02:24:20.970Z,81
2023-02-06T02:25:54.986Z,81
2023-02-06T02:26:44.556Z,81
2023-02-06T02:27:26.291Z,81
2023-02-06T02:28:34.239Z,81
2023-02-06T02:29:27.103Z,81
2023-02-06T02:30:21.137Z,81
2023-02-06T02:31:23.527Z,81
2023-02-06T02:32:25.905Z,81
2023-02-06T02:33:30.856Z,81
2023-02-06T02:34:33.757Z,81
2023-02-06T02:35:38.148Z,81
2023-02-06T02:36:32.548Z,81
2023-02-06T02:37:24.301Z,81
2023-02-06T02:38:23.587Z,81
2023-02-06T02:39:25.900Z,81
2023-02-06T02:40:49.303Z,81
2023-02-06T02:41:36.149Z,82
2023-02-06T02:42:23.176Z,82
2023-02-06T02:43:34.996Z,82
2023-02-06T02:44:28.979Z,82
2023-02-06T02:45:21.821Z,82
2023-02-06T02:46:22.096Z,82
2023-02-06T02:47:52.559Z,82
2023-02-06T02:48:39.536Z,82
2023-02-06T02:49:24.570Z,82
2023-02-06T02:50:33.597Z,82
2023-02-06T02:51:33.331Z,82
2023-02-06T02:52:26.191Z,82
2023-02-06T02:53:19.982Z,82
2023-02-06T02:54:21.964Z,82
2023-02-06T02:55:23.855Z,82
2023-02-06T02:56:28.906Z,82
2023-02-06T02:57:25.375Z,82
2023-02-06T02:58:37.704Z,82
2023-02-06T02:59:30.630Z,82
2023-02-06T03:00:22.674Z,83
2023-02-06T03:01:22.359Z,82
2023-02-06T03:02:45.422Z,82
2023-02-06T03:03:32.421Z,82
2023-02-06T03:04:48.190Z,82
2023-02-06T03:05:42.107Z,82
2023-02-06T03:06:22.494Z,82
2023-02-06T03:08:13.932Z,83
2023-02-06T03:09:20.992Z,83
2023-02-06T03:10:28.139Z,83
2023-02-06T03:11:20.577Z,83
2023-02-06T03:12:21.616Z,83
2023-02-06T03:13:39.517Z,83
2023-02-06T03:14:31.471Z,83
2023-02-06T03:15:23.227Z,83
2023-02-06T03:16:25.831Z,83
2023-02-06T03:17:37.786Z,83
2023-02-06T03:18:23.657Z,83
2023-02-06T03:19:45.083Z,83
2023-02-06T03:20:42.897Z,83
2023-02-06T03:21:35.928Z,83
2023-02-06T03:22:26.868Z,83
2023-02-06T03:23:22.593Z,83
2023-02-06T03:24:21.071Z,83
2023-02-06T03:25:26.806Z,83
2023-02-06T03:26:53.397Z,83
2023-02-06T03:27:49.912Z,83
2023-02-06T03:28:40.084Z,83
2023-02-06T03:29:24.901Z,83
2023-02-06T03:30:24.324Z,83
2023-02-06T03:31:25.400Z,83
2023-02-06T03:32:30.847Z,83
2023-02-06T03:33:55.826Z,83
2023-02-06T03:34:19.477Z,83
2023-02-06T03:35:33.710Z,83
2023-02-06T03:36:28.080Z,83
2023-02-06T03:37:28.106Z,83
2023-02-06T03:38:21.015Z,84
2023-02-06T03:39:24.386Z,83
2023-02-06T03:40:19.690Z,83
2023-02-06T03:41:40.049Z,84
2023-02-06T03:42:41.639Z,84
2023-02-06T03:43:27.808Z,84
2023-02-06T03:44:41.820Z,84
2023-02-06T03:45:25.807Z,84
2023-02-06T03:46:27.618Z,84
2023-02-06T03:47:19.460Z,84
2023-02-06T03:48:31.573Z,84
2023-02-06T03:49:27.316Z,84
2023-02-06T03:50:33.068Z,84
2023-02-06T03:51:22.420Z,84
2023-02-06T03:52:28.943Z,84
2023-02-06T03:53:22.932Z,84
2023-02-06T03:54:25.723Z,84
2023-02-06T03:56:01.143Z,84
2023-02-06T03:56:41.627Z,84
2023-02-06T03:57:28.304Z,84
2023-02-06T03:58:22.760Z,84
2023-02-06T03:59:32.965Z,84
2023-02-06T04:00:25.900Z,84
2023-02-06T04:01:28.926Z,84
2023-02-06T04:02:21.331Z,84
2023-02-06T04:03:33.205Z,84
2023-02-06T04:04:37.164Z,84
2023-02-06T04:05:24.143Z,84
2023-02-06T04:06:38.770Z,84
2023-02-06T04:07:30.431Z,84
2023-02-06T04:08:25.435Z,84
2023-02-06T04:09:25.554Z,84
2023-02-06T04:10:42.119Z,84
2023-02-06T04:11:39.609Z,84
2023-02-06T04:12:28.291Z,84
2023-02-06T04:13:28.152Z,84
2023-02-06T04:14:30.103Z,84
2023-02-06T04:15:29.064Z,84
2023-02-06T04:16:22.957Z,84
2023-02-06T04:17:40.604Z,84
2023-02-06T04:18:22.961Z,84
2023-02-06T04:19:20.437Z,84
2023-02-06T04:20:29.698Z,84
2023-02-06T04:21:24.949Z,84
2023-02-06T04:22:21.399Z,84
2023-02-06T04:23:24.742Z,84
2023-02-06T04:24:26.602Z,84
2023-02-06T04:25:20.055Z,85
2023-02-06T04:26:33.000Z,85
2023-02-06T04:27:19.837Z,85
2023-02-06T04:28:26.707Z,85
2023-02-06T04:29:20.208Z,85
2023-02-06T04:30:30.061Z,85
2023-02-06T04:31:21.038Z,85
2023-02-06T04:32:24.246Z,85
2023-02-06T04:33:31.850Z,85
2023-02-06T04:34:22.752Z,85
2023-02-06T04:35:25.678Z,85
2023-02-06T04:36:22.368Z,84
2023-02-06T04:37:33.259Z,85
2023-02-06T04:38:26.559Z,84
2023-02-06T04:39:24.526Z,85
2023-02-06T04:40:22.449Z,85
2023-02-06T04:41:27.882Z,85
2023-02-06T04:42:28.465Z,85
2023-02-06T04:43:20.310Z,85
2023-02-06T04:44:33.054Z,85
2023-02-06T04:45:20.738Z,85
2023-02-06T04:46:22.284Z,85
2023-02-06T04:47:21.105Z,85
2023-02-06T04:48:29.792Z,85
2023-02-06T04:49:23.957Z,85
2023-02-06T04:50:35.779Z,86
2023-02-06T04:51:30.278Z,85
2023-02-06T04:52:27.611Z,85
2023-02-06T04:53:26.205Z,85
2023-02-06T04:54:33.457Z,85
2023-02-06T04:55:22.583Z,85
2023-02-06T04:56:25.247Z,86
2023-02-06T04:57:19.969Z,85
2023-02-06T04:58:30.350Z,85
2023-02-06T04:59:31.120Z,85
2023-02-06T05:00:29.850Z,85
2023-02-06T05:01:23.458Z,85
2023-02-06T05:02:27.264Z,85
2023-02-06T05:03:21.813Z,85
2023-02-06T05:04:21.606Z,85
2023-02-06T05:05:36.876Z,85
2023-02-06T05:06:30.158Z,85
2023-02-06T05:07:24.897Z,85
2023-02-06T05:08:27.614Z,85
2023-02-06T05:09:19.836Z,85
2023-02-06T05:10:26.608Z,85
2023-02-06T05:11:20.867Z,85
2023-02-06T05:12:30.111Z,85
2023-02-06T05:13:34.669Z,85
2023-02-06T05:14:19.770Z,85
2023-02-06T05:15:31.813Z,85
2023-02-06T05:16:23.960Z,85
2023-02-06T05:17:25.010Z,85
2023-02-06T05:18:21.424Z,85
2023-02-06T05:19:32.028Z,85
2023-02-06T05:20:26.280Z,85
2023-02-06T05:21:24.404Z,85
2023-02-06T05:22:38.503Z,85
2023-02-06T05:23:28.114Z,85
2023-02-06T05:24:23.077Z,85
2023-02-06T05:25:28.298Z,85
2023-02-06T05:26:45.856Z,85
2023-02-06T05:27:30.336Z,85
2023-02-06T05:28:26.081Z,85
2023-02-06T05:29:32.024Z,85
2023-02-06T05:30:33.743Z,85
2023-02-06T05:31:24.840Z,85
2023-02-06T05:32:21.733Z,86
2023-02-06T05:33:24.321Z,85
2023-02-06T05:34:43.790Z,85
2023-02-06T05:35:23.204Z,85
2023-02-06T05:36:45.213Z,85
2023-02-06T05:37:37.359Z,85
2023-02-06T05:38:25.227Z,85
2023-02-06T05:39:25.075Z,85
2023-02-06T05:40:27.305Z,85
2023-02-06T05:41:20.227Z,85
2023-02-06T05:42:32.039Z,85
2023-02-06T05:43:48.623Z,85
2023-02-06T05:44:32.747Z,85
2023-02-06T05:45:24.756Z,85
2023-02-06T05:46:21.963Z,85
2023-02-06T05:47:33.529Z,85
2023-02-06T05:48:25.890Z,85
2023-02-06T05:49:24.715Z,85
2023-02-06T05:50:22.638Z,86
2023-02-06T05:51:29.125Z,85
2023-02-06T05:52:25.711Z,85
2023-02-06T05:53:20.275Z,85
2023-02-06T05:54:23.100Z,85
2023-02-06T05:55:30.611Z,86
2023-02-06T05:56:21.610Z,86
2023-02-06T05:57:25.846Z,85
2023-02-06T05:58:30.258Z,85
2023-02-06T05:59:24.500Z,85
2023-02-06T06:00:20.077Z,86
2023-02-06T06:01:21.286Z,86
2023-02-06T06:02:20.162Z,86
2023-02-06T06:03:26.938Z,86
2023-02-06T06:04:28.928Z,86
2023-02-06T06:05:28.332Z,86
2023-02-06T06:06:46.476Z,86
2023-02-06T06:07:21.349Z,86
2023-02-06T06:08:24.260Z,86
2023-02-06T06:09:23.764Z,86
2023-02-06T06:10:32.021Z,86
2023-02-06T06:11:23.246Z,86
2023-02-06T06:12:29.438Z,86
2023-02-06T06:13:43.711Z,86
2023-02-06T06:14:35.667Z,86
2023-02-06T06:15:26.000Z,86
2023-02-06T06:16:29.429Z,86
2023-02-06T06:17:24.304Z,86
2023-02-06T06:18:27.504Z,86
2023-02-06T06:19:22.087Z,86
2023-02-06T06:20:55.999Z,86
2023-02-06T06:21:35.942Z,86
2023-02-06T06:22:30.206Z,86
2023-02-06T06:23:32.712Z,86
2023-02-06T06:24:26.720Z,86
2023-02-06T06:25:33.050Z,86
2023-02-06T06:26:26.625Z,86
2023-02-06T06:27:24.313Z,86
2023-02-06T06:28:20.417Z,86
2023-02-06T06:29:33.184Z,86
2023-02-06T06:30:37.014Z,86
2023-02-06T06:31:31.046Z,86
2023-02-06T06:32:23.961Z,86
2023-02-06T06:33:28.688Z,86
2023-02-06T06:34:23.131Z,86
2023-02-06T06:35:20.324Z,86
2023-02-06T06:36:29.990Z,86
2023-02-06T06:37:23.465Z,86
2023-02-06T06:38:22.246Z,86
2023-02-06T06:39:25.669Z,86
2023-02-06T06:40:30.346Z,86
2023-02-06T06:41:26.231Z,86
2023-02-06T06:42:20.268Z,86
2023-02-06T06:43:40.651Z,86
2023-02-06T06:44:27.587Z,86
2023-02-06T06:45:22.190Z,86
2023-02-06T06:46:31.585Z,86
2023-02-06T06:47:24.541Z,86
2023-02-06T06:48:19.902Z,86
2023-02-06T06:49:23.910Z,85
2023-02-06T06:50:42.198Z,86
2023-02-06T06:51:28.278Z,86
2023-02-06T06:52:43.226Z,86
2023-02-06T06:53:35.972Z,86
2023-02-06T06:54:29.587Z,86
2023-02-06T06:55:19.820Z,86
2023-02-06T06:56:27.498Z,86
2023-02-06T06:57:20.445Z,86
2023-02-06T06:58:32.529Z,86
2023-02-06T06:59:36.364Z,86
2023-02-06T07:00:38.763Z,86
2023-02-06T07:01:32.284Z,86
2023-02-06T07:02:26.145Z,86
2023-02-06T07:03:35.314Z,86
2023-02-06T07:04:24.709Z,86
2023-02-06T07:05:36.931Z,86
2023-02-06T07:06:21.009Z,86
2023-02-06T07:07:43.649Z,86
2023-02-06T07:08:28.496Z,86
2023-02-06T07:09:30.413Z,86
2023-02-06T07:10:21.081Z,86
2023-02-06T07:11:31.286Z,86
2023-02-06T07:12:22.928Z,85
2023-02-06T07:13:24.504Z,85
2023-02-06T07:14:45.885Z,85
2023-02-06T07:15:41.733Z,86
2023-02-06T07:16:33.894Z,86
2023-02-06T07:17:24.709Z,86
2023-02-06T07:18:33.982Z,85
2023-02-06T07:19:25.698Z,86
2023-02-06T07:20:27.153Z,85
2023-02-06T07:21:52.778Z,85
2023-02-06T07:22:44.284Z,85
2023-02-06T07:23:37.027Z,85
2023-02-06T07:24:22.066Z,86
2023-02-06T07:25:21.971Z,85
2023-02-06T07:26:31.841Z,85
2023-02-06T07:27:23.360Z,85
2023-02-06T07:28:54.036Z,85
2023-02-06T07:29:48.521Z,85
2023-02-06T07:30:22.522Z,85
2023-02-06T07:31:20.454Z,85
2023-02-06T07:32:25.924Z,85
2023-02-06T07:33:34.696Z,85
2023-02-06T07:34:27.540Z,85
2023-02-06T07:35:20.548Z,85
2023-02-06T07:36:26.107Z,85
2023-02-06T07:37:44.821Z,85
2023-02-06T07:38:29.672Z,85
2023-02-06T07:39:30.130Z,85
2023-02-06T07:40:45.580Z,85
2023-02-06T07:41:31.704Z,85
2023-02-06T07:42:25.192Z,84
2023-02-06T07:43:46.210Z,85
2023-02-06T07:44:46.024Z,85
2023-02-06T07:45:32.050Z,85
2023-02-06T07:46:33.699Z,85
2023-02-06T07:47:25.004Z,85
2023-02-06T07:48:21.386Z,85
2023-02-06T07:49:26.218Z,85
2023-02-06T07:50:23.564Z,85
2023-02-06T07:51:48.411Z,85
2023-02-06T07:52:35.384Z,84
2023-02-06T07:53:22.316Z,84
2023-02-06T07:54:33.105Z,85
2023-02-06T07:55:26.007Z,85
2023-02-06T07:56:30.075Z,84
2023-02-06T07:57:27.085Z,85
2023-02-06T07:58:21.380Z,85
2023-02-06T07:59:34.915Z,84
2023-02-06T08:00:24.152Z,84
2023-02-06T08:01:36.618Z,84
2023-02-06T08:02:27.885Z,84
2023-02-06T08:03:22.355Z,84
2023-02-06T08:04:25.442Z,84
2023-02-06T08:05:23.577Z,84
2023-02-06T08:06:40.060Z,84
2023-02-06T08:07:29.098Z,84
2023-02-06T08:08:40.929Z,84
2023-02-06T08:09:32.045Z,84
2023-02-06T08:10:26.807Z,84
2023-02-06T08:11:23.674Z,84
2023-02-06T08:12:28.220Z,84
2023-02-06T08:13:21.156Z,84
2023-02-06T08:14:29.903Z,84
2023-02-06T08:15:24.094Z,84
2023-02-06T08:16:37.878Z,84
2023-02-06T08:17:30.842Z,84
2023-02-06T08:18:24.028Z,84
2023-02-06T08:19:34.082Z,83
2023-02-06T08:20:25.464Z,83
2023-02-06T08:21:27.428Z,83
2023-02-06T08:22:20.181Z,83
2023-02-06T08:23:42.101Z,83
2023-02-06T08:24:42.441Z,84
2023-02-06T08:25:29.400Z,84
2023-02-06T08:26:36.428Z,84
2023-02-06T08:27:31.988Z,84
2023-02-06T08:28:24.387Z,83
2023-02-06T08:29:23.915Z,83
2023-02-06T08:30:45.981Z,83
2023-02-06T08:31:39.023Z,83
2023-02-06T08:32:26.187Z,84
2023-02-06T08:33:23.168Z,83
2023-02-06T08:34:34.028Z,83
2023-02-06T08:35:28.413Z,83
2023-02-06T08:36:19.513Z,83
2023-02-06T08:37:49.248Z,83
2023-02-06T08:38:30.427Z,83
2023-02-06T08:39:35.203Z,83
2023-02-06T08:40:23.205Z,83
2023-02-06T08:41:39.170Z,83
2023-02-06T08:42:31.282Z,83
2023-02-06T08:43:22.820Z,82
2023-02-06T08:44:35.828Z,82
2023-02-06T08:45:52.317Z,82
2023-02-06T08:46:40.199Z,82
2023-02-06T08:47:25.453Z,82
2023-02-06T08:48:24.124Z,82
2023-02-06T08:49:26.412Z,82
2023-02-06T08:50:28.534Z,82
2023-02-06T08:51:21.280Z,82
2023-02-06T08:52:50.548Z,82
2023-02-06T08:53:42.904Z,82
2023-02-06T08:54:26.875Z,82
2023-02-06T08:55:29.435Z,82
2023-02-06T08:56:20.679Z,82
2023-02-06T08:57:35.960Z,81
2023-02-06T08:58:22.304Z,82
2023-02-06T08:59:54.377Z,82
2023-02-06T09:00:25.273Z,82
2023-02-06T09:01:29.893Z,82
2023-02-06T09:02:33.109Z,81
2023-02-06T09:03:24.965Z,81
2023-02-06T09:04:38.136Z,80
2023-02-06T09:05:25.982Z,81
2023-02-06T09:06:22.521Z,81
2023-02-06T09:07:42.703Z,81
2023-02-06T09:08:34.770Z,82
2023-02-06T09:09:21.895Z,81
2023-02-06T09:10:30.443Z,81
2023-02-06T09:11:23.325Z,80
2023-02-06T09:12:27.893Z,80
2023-02-06T09:13:26.624Z,80
2023-02-06T09:14:21.129Z,80
2023-02-06T09:15:38.569Z,80
2023-02-06T09:16:23.333Z,81
2023-02-06T09:17:27.084Z,80
2023-02-06T09:18:26.057Z,80
2023-02-06T09:19:31.160Z,80
2023-02-06T09:20:31.291Z,80
2023-02-06T09:21:24.311Z,80
2023-02-06T09:22:40.388Z,81
2023-02-06T09:23:25.968Z,81
2023-02-06T09:24:38.392Z,80
2023-02-06T09:25:31.118Z,79
2023-02-06T09:26:24.797Z,80
2023-02-06T09:27:21.232Z,80
2023-02-06T09:28:22.270Z,79
2023-02-06T09:29:21.321Z,81
2023-02-06T09:30:29.313Z,80
2023-02-06T09:31:42.715Z,80
2023-02-06T09:32:35.592Z,79
2023-02-06T09:33:26.689Z,80
2023-02-06T09:34:21.421Z,80
2023-02-06T09:35:32.533Z,80
2023-02-06T09:36:25.489Z,80
2023-02-06T09:37:32.124Z,80
2023-02-06T09:38:46.079Z,80
2023-02-06T09:39:37.950Z,79
2023-02-06T09:40:33.493Z,79
2023-02-06T09:41:24.838Z,80
2023-02-06T09:42:36.653Z,79
2023-02-06T09:43:30.696Z,79
2023-02-06T09:44:23.266Z,79
2023-02-06T09:45:23.835Z,79
2023-02-06T09:46:38.424Z,79
2023-02-06T09:47:36.467Z,79
2023-02-06T09:48:31.423Z,80
2023-02-06T09:49:20.991Z,78
2023-02-06T09:50:33.746Z,79
2023-02-06T09:51:31.098Z,78
2023-02-06T09:52:20.260Z,79
2023-02-06T09:53:46.938Z,79
2023-02-06T09:54:39.770Z,79
2023-02-06T09:55:35.117Z,79
2023-02-06T09:56:22.740Z,78
2023-02-06T09:57:34.524Z,77
2023-02-06T09:58:31.383Z,78
2023-02-06T09:59:24.292Z,78
2023-02-06T10:00:51.413Z,78
2023-02-06T10:01:44.311Z,79
2023-02-06T10:02:28.113Z,79
2023-02-06T10:03:24.318Z,79
2023-02-06T10:04:21.688Z,78
2023-02-06T10:05:36.031Z,78
2023-02-06T10:06:31.038Z,79
2023-02-06T10:07:21.391Z,79
2023-02-06T10:08:34.466Z,78
2023-02-06T10:09:41.788Z,77
2023-02-06T10:10:28.099Z,77
2023-02-06T10:11:25.802Z,78
2023-02-06T10:12:39.684Z,78
2023-02-06T10:13:23.209Z,77
2023-02-06T10:14:21.496Z,78
2023-02-06T10:15:50.160Z,78
2023-02-06T10:16:45.032Z,78
2023-02-06T10:17:31.058Z,78
2023-02-06T10:18:29.880Z,77
2023-02-06T10:19:24.780Z,77
2023-02-06T10:20:37.746Z,75
2023-02-06T10:21:24.438Z,76
2023-02-06T10:22:23.196Z,77
2023-02-06T10:23:49.471Z,77
2023-02-06T10:24:22.085Z,77
2023-02-06T10:25:36.544Z,77
2023-02-06T10:26:26.908Z,76
2023-02-06T10:27:20.467Z,76
2023-02-06T10:28:26.940Z,78
2023-02-06T10:29:27.259Z,78
2023-02-06T10:30:20.333Z,77
2023-02-06T10:31:38.896Z,78
2023-02-06T10:32:24.880Z,77
2023-02-06T10:33:31.789Z,76
2023-02-06T10:34:24.685Z,76
2023-02-06T10:35:30.972Z,78
2023-02-06T10:36:31.836Z,77
2023-02-06T10:37:25.260Z,77
2023-02-06T10:38:38.361Z,77
2023-02-06T10:39:26.289Z,78
2023-02-06T10:41:01.382Z,77
2023-02-06T10:41:21.903Z,77
2023-02-06T10:42:22.923Z,77
2023-02-06T10:43:20.314Z,76
2023-02-06T10:44:30.901Z,75
2023-02-06T10:45:21.418Z,73
2023-02-06T10:46:28.137Z,77
2023-02-06T10:47:26.813Z,76
2023-02-06T10:48:31.309Z,77
2023-02-06T10:49:26.594Z,76
2023-02-06T10:50:22.916Z,76
2023-02-06T10:51:32.709Z,77
2023-02-06T10:52:25.575Z,76
2023-02-06T10:53:33.219Z,75
2023-02-06T10:54:46.213Z,77
2023-02-06T10:55:37.177Z,77
2023-02-06T10:56:30.075Z,77
2023-02-06T10:57:21.819Z,77
2023-02-06T10:58:24.461Z,74
2023-02-06T10:59:31.948Z,74
2023-02-06T11:00:23.252Z,75
2023-02-06T11:01:26.480Z,77
2023-02-06T11:02:40.557Z,76
2023-02-06T11:03:32.599Z,75
2023-02-06T11:04:26.475Z,73
2023-02-06T11:05:41.962Z,76
2023-02-06T11:06:34.369Z,74
2023-02-06T11:07:29.273Z,72
2023-02-06T11:08:20.436Z,76
2023-02-06T11:09:23.925Z,76
2023-02-06T11:10:38.543Z,75
2023-02-06T11:11:33.933Z,76
2023-02-06T11:12:24.234Z,76
2023-02-06T11:13:39.836Z,76
2023-02-06T11:14:32.212Z,76
2023-02-06T11:15:28.790Z,74
2023-02-06T11:16:38.965Z,75
2023-02-06T11:17:41.624Z,73
2023-02-06T11:18:36.501Z,71
2023-02-06T11:19:26.767Z,70
2023-02-06T11:20:22.154Z,74
2023-02-06T11:21:32.177Z,74
2023-02-06T11:22:38.851Z,74
2023-02-06T11:23:23.184Z,74
2023-02-06T11:24:45.979Z,74
2023-02-06T11:25:40.284Z,72
2023-02-06T11:26:26.915Z,72
2023-02-06T11:27:23.784Z,71
2023-02-06T11:28:51.271Z,73
2023-02-06T11:29:35.113Z,74
2023-02-06T11:30:21.564Z,73
2023-02-06T11:31:50.669Z,72
2023-02-06T11:32:29.689Z,72
2023-02-06T11:33:28.154Z,73
2023-02-06T11:34:28.012Z,74
2023-02-06T11:35:20.352Z,72
2023-02-06T11:36:39.104Z,74
2023-02-06T11:37:21.114Z,73
2023-02-06T11:38:23.292Z,72
2023-02-06T11:39:46.803Z,72
2023-02-06T11:40:32.007Z,73
2023-02-06T11:41:32.750Z,71
2023-02-06T11:42:24.676Z,72
2023-02-06T11:43:26.751Z,72
2023-02-06T11:44:26.201Z,73
2023-02-06T11:45:27.572Z,72
2023-02-06T11:46:20.541Z,72
2023-02-06T11:47:37.596Z,71
2023-02-06T11:48:21.067Z,71
2023-02-06T11:49:29.911Z,71
2023-02-06T11:50:21.612Z,70
2023-02-06T11:51:31.139Z,70
2023-02-06T11:52:31.667Z,70
2023-02-06T11:53:24.651Z,71
2023-02-06T11:54:23.031Z,70
2023-02-06T11:55:24.112Z,70
2023-02-06T11:56:32.739Z,71
2023-02-06T11:57:27.692Z,70
2023-02-06T11:58:33.796Z,69
2023-02-06T11:59:35.851Z,70
2023-02-06T12:00:29.256Z,71
2023-02-06T12:01:22.740Z,69
2023-02-06T12:02:27.860Z,69
2023-02-06T12:03:38.477Z,71
2023-02-06T12:04:31.367Z,70
2023-02-06T12:05:23.993Z,69
2023-02-06T12:06:22.184Z,69
2023-02-06T12:07:34.267Z,70
2023-02-06T12:08:28.071Z,68
2023-02-06T12:09:31.878Z,68
2023-02-06T12:10:40.482Z,69
2023-02-06T12:11:24.769Z,69
2023-02-06T12:12:29.009Z,68
2023-02-06T12:13:22.080Z,68
2023-02-06T12:14:37.575Z,68
2023-02-06T12:15:45.426Z,68
2023-02-06T12:16:23.481Z,68
2023-02-06T12:17:20.045Z,67
2023-02-06T12:18:37.896Z,65
2023-02-06T12:19:32.383Z,65
2023-02-06T12:20:26.813Z,64
2023-02-06T12:21:43.201Z,65
2023-02-06T12:22:22.124Z,65
2023-02-06T12:23:27.510Z,65
2023-02-06T12:24:25.166Z,65
2023-02-06T12:25:41.736Z,66
2023-02-06T12:26:35.892Z,65
2023-02-06T12:27:27.721Z,65
2023-02-06T12:28:20.859Z,67
2023-02-06T12:29:53.742Z,67
2023-02-06T12:30:33.859Z,66
2023-02-06T12:31:27.857Z,67
2023-02-06T12:32:47.526Z,67
2023-02-06T12:33:38.854Z,68
2023-02-06T12:34:34.531Z,68
2023-02-06T12:35:21.126Z,68
2023-02-06T12:36:42.957Z,67
2023-02-06T12:37:38.164Z,67
2023-02-06T12:38:58.149Z,66
2023-02-06T12:39:22.961Z,65
2023-02-06T12:40:37.238Z,65
2023-02-06T12:41:37.421Z,66
2023-02-06T12:42:25.998Z,65
2023-02-06T12:43:21.974Z,64
2023-02-06T12:44:41.918Z,66
2023-02-06T12:45:28.853Z,65
2023-02-06T12:46:26.454Z,64
2023-02-06T12:47:20.689Z,65
2023-02-06T12:48:40.555Z,66
2023-02-06T12:49:29.076Z,67
2023-02-06T12:50:19.785Z,65
2023-02-06T12:51:34.515Z,68
2023-02-06T12:52:37.651Z,68
2023-02-06T12:53:23.341Z,68
2023-02-06T12:54:23.508Z,68
2023-02-06T12:55:45.189Z,68
2023-02-06T12:56:26.213Z,68
2023-02-06T12:57:29.653Z,68
2023-02-06T12:58:24.108Z,66
2023-02-06T12:59:43.726Z,67
2023-02-06T13:00:25.320Z,65
2023-02-06T13:01:33.708Z,65
2023-02-06T13:02:21.648Z,67
2023-02-06T13:03:33.875Z,68
2023-02-06T13:04:20.115Z,66
2023-02-06T13:05:28.804Z,63
2023-02-06T13:06:19.701Z,65
2023-02-06T13:07:22.030Z,67
2023-02-06T13:08:35.382Z,66
2023-02-06T13:09:25.254Z,67
2023-02-06T13:10:38.502Z,67
2023-02-06T13:11:23.270Z,66
2023-02-06T13:12:30.991Z,66
2023-02-06T13:13:24.798Z,67
2023-02-06T13:14:31.482Z,63
2023-02-06T13:15:37.628Z,64
2023-02-06T13:16:31.807Z,65
2023-02-06T13:17:24.068Z,66
2023-02-06T13:18:26.356Z,66
2023-02-06T13:19:34.544Z,66
2023-02-06T13:20:27.501Z,67
2023-02-06T13:21:21.995Z,68
2023-02-06T13:22:21.224Z,70
2023-02-06T13:23:34.327Z,69
2023-02-06T13:24:27.769Z,69
2023-02-06T13:25:20.681Z,66
2023-02-06T13:26:38.633Z,66
2023-02-06T13:27:33.533Z,66
2023-02-06T13:28:24.553Z,65
2023-02-06T13:29:24.303Z,65
2023-02-06T13:30:29.332Z,66
2023-02-06T13:31:33.041Z,67
2023-02-06T13:32:25.213Z,69
2023-02-06T13:33:44.231Z,67
2023-02-06T13:34:37.101Z,65
2023-02-06T13:35:30.149Z,66
2023-02-06T13:36:23.070Z,67
2023-02-06T13:37:42.022Z,69
2023-02-06T13:38:36.326Z,70
2023-02-06T13:39:29.981Z,70
2023-02-06T13:40:22.863Z,69
2023-02-06T13:41:26.746Z,66
2023-02-06T13:42:34.900Z,68
2023-02-06T13:43:27.701Z,68
2023-02-06T13:44:45.981Z,68
2023-02-06T13:45:40.537Z,67
2023-02-06T13:46:32.476Z,67
2023-02-06T13:47:32.867Z,67
2023-02-06T13:48:46.786Z,67
2023-02-06T13:49:38.362Z,67
2023-02-06T13:50:31.289Z,66
2023-02-06T13:51:23.482Z,67
2023-02-06T13:52:45.181Z,67
2023-02-06T13:53:38.199Z,68
2023-02-06T13:54:31.059Z,67
2023-02-06T13:55:23.017Z,67
2023-02-06T13:56:42.036Z,67
2023-02-06T13:57:36.224Z,67
2023-02-06T13:58:24.098Z,66
2023-02-06T13:59:19.585Z,68
2023-02-06T14:00:41.752Z,67
2023-02-06T14:01:34.801Z,68
2023-02-06T14:02:26.680Z,68
2023-02-06T14:03:47.416Z,68
2023-02-06T14:04:34.594Z,68
2023-02-06T14:05:26.691Z,67
2023-02-06T14:06:25.646Z,69
2023-02-06T14:07:49.395Z,68
2023-02-06T14:08:35.376Z,66
2023-02-06T14:09:22.562Z,66
2023-02-06T14:10:24.223Z,67
2023-02-06T14:11:42.359Z,66
2023-02-06T14:12:30.095Z,67
2023-02-06T14:13:27.951Z,67
2023-02-06T14:14:20.591Z,68
2023-02-06T14:15:31.070Z,68
2023-02-06T14:16:25.648Z,67
2023-02-06T14:17:29.860Z,67
2023-02-06T14:18:21.574Z,67
2023-02-06T14:19:33.741Z,69
2023-02-06T14:20:22.628Z,70
2023-02-06T14:21:24.843Z,69
2023-02-06T14:22:40.380Z,68
2023-02-06T14:23:28.587Z,69
2023-02-06T14:24:32.535Z,68
2023-02-06T14:25:25.468Z,67
2023-02-06T14:26:36.288Z,67
2023-02-06T14:27:22.377Z,67
2023-02-06T14:28:28.571Z,66
2023-02-06T14:29:21.984Z,68
2023-02-06T14:30:30.098Z,68